sensor_id;sensor_type;location;lat;lon;timestamp;temperature;humidity
71291;DHT22;59073;51.994;4.448;2023-05-07T00:01:47;15.26;86.41
71291;DHT22;59073;51.994;4.448;2023-05-07T00:04:13;15.13;87.22
71291;DHT22;59073;51.994;4.448;2023-05-07T00:06:39;15.22;86.81
71291;DHT22;59073;51.994;4.448;2023-05-07T00:09:05;15.31;85.97
71291;DHT22;59073;51.994;4.448;2023-05-07T00:11:32;15.37;85.61
71291;DHT22;59073;51.994;4.448;2023-05-07T00:13:57;15.33;85.68
71291;DHT22;59073;51.994;4.448;2023-05-07T00:16:23;15.37;85.35
71291;DHT22;59073;51.994;4.448;2023-05-07T00:18:48;15.30;85.72
71291;DHT22;59073;51.994;4.448;2023-05-07T00:21:14;15.33;85.37
71291;DHT22;59073;51.994;4.448;2023-05-07T00:23:39;15.39;85.31
71291;DHT22;59073;51.994;4.448;2023-05-07T00:26:05;15.39;85.24
71291;DHT22;59073;51.994;4.448;2023-05-07T00:28:30;15.31;85.49
71291;DHT22;59073;51.994;4.448;2023-05-07T00:30:56;15.22;86.14
71291;DHT22;59073;51.994;4.448;2023-05-07T00:33:22;15.07;86.63
71291;DHT22;59073;51.994;4.448;2023-05-07T00:35:48;15.03;86.68
71291;DHT22;59073;51.994;4.448;2023-05-07T00:38:13;15.02;86.65
71291;DHT22;59073;51.994;4.448;2023-05-07T00:40:39;15.00;86.65
71291;DHT22;59073;51.994;4.448;2023-05-07T00:43:04;15.03;86.55
71291;DHT22;59073;51.994;4.448;2023-05-07T00:45:30;15.03;86.30
71291;DHT22;59073;51.994;4.448;2023-05-07T00:47:57;15.09;86.36
71291;DHT22;59073;51.994;4.448;2023-05-07T00:50:25;15.26;86.21
71291;DHT22;59073;51.994;4.448;2023-05-07T00:52:51;15.33;85.71
71291;DHT22;59073;51.994;4.448;2023-05-07T00:55:17;15.24;85.41
71291;DHT22;59073;51.994;4.448;2023-05-07T00:57:44;15.27;85.45
71291;DHT22;59073;51.994;4.448;2023-05-07T01:00:10;15.23;85.83
71291;DHT22;59073;51.994;4.448;2023-05-07T01:02:40;15.19;85.94
71291;DHT22;59073;51.994;4.448;2023-05-07T01:05:09;15.20;86.03
71291;DHT22;59073;51.994;4.448;2023-05-07T01:07:37;15.20;85.91
71291;DHT22;59073;51.994;4.448;2023-05-07T01:10:06;15.18;86.27
71291;DHT22;59073;51.994;4.448;2023-05-07T01:12:33;15.07;86.30
71291;DHT22;59073;51.994;4.448;2023-05-07T01:14:59;15.00;86.59
71291;DHT22;59073;51.994;4.448;2023-05-07T01:17:26;14.88;86.58
71291;DHT22;59073;51.994;4.448;2023-05-07T01:19:51;14.76;86.92
71291;DHT22;59073;51.994;4.448;2023-05-07T01:22:29;14.71;87.24
71291;DHT22;59073;51.994;4.448;2023-05-07T01:24:56;14.65;87.06
71291;DHT22;59073;51.994;4.448;2023-05-07T01:27:21;14.65;87.05
71291;DHT22;59073;51.994;4.448;2023-05-07T01:29:47;14.65;86.92
71291;DHT22;59073;51.994;4.448;2023-05-07T01:32:15;14.59;87.05
71291;DHT22;59073;51.994;4.448;2023-05-07T01:34:47;14.61;87.22
71291;DHT22;59073;51.994;4.448;2023-05-07T01:37:14;14.65;87.28
71291;DHT22;59073;51.994;4.448;2023-05-07T01:39:40;14.65;87.59
71291;DHT22;59073;51.994;4.448;2023-05-07T01:42:06;14.62;87.63
71291;DHT22;59073;51.994;4.448;2023-05-07T01:44:32;14.61;87.93
71291;DHT22;59073;51.994;4.448;2023-05-07T01:46:58;14.62;87.77
71291;DHT22;59073;51.994;4.448;2023-05-07T01:49:24;14.64;87.61
71291;DHT22;59073;51.994;4.448;2023-05-07T01:51:51;14.67;87.75
71291;DHT22;59073;51.994;4.448;2023-05-07T01:54:16;14.64;87.89
71291;DHT22;59073;51.994;4.448;2023-05-07T01:56:42;14.68;87.45
71291;DHT22;59073;51.994;4.448;2023-05-07T01:59:07;14.75;87.25
71291;DHT22;59073;51.994;4.448;2023-05-07T02:01:33;14.76;86.87
71291;DHT22;59073;51.994;4.448;2023-05-07T02:03:58;14.86;86.70
71291;DHT22;59073;51.994;4.448;2023-05-07T02:06:23;14.79;87.14
71291;DHT22;59073;51.994;4.448;2023-05-07T02:08:49;14.76;86.96
71291;DHT22;59073;51.994;4.448;2023-05-07T02:11:14;14.75;87.00
71291;DHT22;59073;51.994;4.448;2023-05-07T02:13:41;14.69;87.30
71291;DHT22;59073;51.994;4.448;2023-05-07T02:16:06;14.68;87.77
71291;DHT22;59073;51.994;4.448;2023-05-07T02:18:32;14.71;87.52
71291;DHT22;59073;51.994;4.448;2023-05-07T02:20:57;14.78;87.53
71291;DHT22;59073;51.994;4.448;2023-05-07T02:23:22;14.81;87.19
71291;DHT22;59073;51.994;4.448;2023-05-07T02:25:48;14.81;86.97
71291;DHT22;59073;51.994;4.448;2023-05-07T02:28:13;14.79;87.01
71291;DHT22;59073;51.994;4.448;2023-05-07T02:30:39;14.82;87.17
71291;DHT22;59073;51.994;4.448;2023-05-07T02:33:05;14.79;87.23
71291;DHT22;59073;51.994;4.448;2023-05-07T02:35:31;14.85;87.40
71291;DHT22;59073;51.994;4.448;2023-05-07T02:37:57;14.92;87.21
71291;DHT22;59073;51.994;4.448;2023-05-07T02:40:22;14.92;87.44
71291;DHT22;59073;51.994;4.448;2023-05-07T02:42:47;14.92;87.70
71291;DHT22;59073;51.994;4.448;2023-05-07T02:45:13;14.90;87.57
71291;DHT22;59073;51.994;4.448;2023-05-07T02:47:39;14.98;87.67
71291;DHT22;59073;51.994;4.448;2023-05-07T02:50:05;15.03;87.41
71291;DHT22;59073;51.994;4.448;2023-05-07T02:52:31;15.00;87.59
71291;DHT22;59073;51.994;4.448;2023-05-07T02:54:56;14.93;87.66
71291;DHT22;59073;51.994;4.448;2023-05-07T02:57:22;14.86;87.80
71291;DHT22;59073;51.994;4.448;2023-05-07T02:59:47;14.83;88.07
71291;DHT22;59073;51.994;4.448;2023-05-07T03:02:12;14.85;88.11
71291;DHT22;59073;51.994;4.448;2023-05-07T03:04:39;14.85;88.14
71291;DHT22;59073;51.994;4.448;2023-05-07T03:07:05;14.81;87.89
71291;DHT22;59073;51.994;4.448;2023-05-07T03:09:30;14.82;87.96
71291;DHT22;59073;51.994;4.448;2023-05-07T03:11:56;14.96;87.82
71291;DHT22;59073;51.994;4.448;2023-05-07T03:14:22;14.96;87.38
71291;DHT22;59073;51.994;4.448;2023-05-07T03:16:49;15.03;87.43
71291;DHT22;59073;51.994;4.448;2023-05-07T03:19:14;15.04;87.24
71291;DHT22;59073;51.994;4.448;2023-05-07T03:21:40;15.03;86.93
71291;DHT22;59073;51.994;4.448;2023-05-07T03:24:05;15.03;86.88
71291;DHT22;59073;51.994;4.448;2023-05-07T03:26:31;15.22;86.52
71291;DHT22;59073;51.994;4.448;2023-05-07T03:28:56;15.22;86.43
71291;DHT22;59073;51.994;4.448;2023-05-07T03:31:22;15.22;86.51
71291;DHT22;59073;51.994;4.448;2023-05-07T03:33:54;15.14;86.81
71291;DHT22;59073;51.994;4.448;2023-05-07T03:36:20;15.12;86.82
71291;DHT22;59073;51.994;4.448;2023-05-07T03:38:47;15.10;87.19
71291;DHT22;59073;51.994;4.448;2023-05-07T03:41:13;15.09;87.39
71291;DHT22;59073;51.994;4.448;2023-05-07T03:43:38;14.98;87.75
71291;DHT22;59073;51.994;4.448;2023-05-07T03:46:04;14.90;87.96
71291;DHT22;59073;51.994;4.448;2023-05-07T03:48:29;14.88;88.28
71291;DHT22;59073;51.994;4.448;2023-05-07T03:50:57;14.82;88.58
71291;DHT22;59073;51.994;4.448;2023-05-07T03:53:22;14.82;88.47
71291;DHT22;59073;51.994;4.448;2023-05-07T03:55:48;14.75;88.27
71291;DHT22;59073;51.994;4.448;2023-05-07T03:58:13;14.82;88.48
71291;DHT22;59073;51.994;4.448;2023-05-07T04:00:38;14.83;88.32
71291;DHT22;59073;51.994;4.448;2023-05-07T04:03:05;14.88;88.20
71291;DHT22;59073;51.994;4.448;2023-05-07T04:05:31;14.95;87.90
71291;DHT22;59073;51.994;4.448;2023-05-07T04:07:59;15.06;87.65
71291;DHT22;59073;51.994;4.448;2023-05-07T04:10:25;15.02;87.88
71291;DHT22;59073;51.994;4.448;2023-05-07T04:12:51;14.90;88.18
71291;DHT22;59073;51.994;4.448;2023-05-07T04:15:16;14.83;88.09
71291;DHT22;59073;51.994;4.448;2023-05-07T04:17:42;14.88;87.97
71291;DHT22;59073;51.994;4.448;2023-05-07T04:20:15;14.90;87.82
71291;DHT22;59073;51.994;4.448;2023-05-07T04:22:41;14.90;88.15
71291;DHT22;59073;51.994;4.448;2023-05-07T04:25:07;14.92;87.73
71291;DHT22;59073;51.994;4.448;2023-05-07T04:27:34;14.93;87.40
71291;DHT22;59073;51.994;4.448;2023-05-07T04:30:00;15.02;87.26
71291;DHT22;59073;51.994;4.448;2023-05-07T04:32:26;15.24;86.77
71291;DHT22;59073;51.994;4.448;2023-05-07T04:34:52;15.27;86.41
71291;DHT22;59073;51.994;4.448;2023-05-07T04:37:17;15.22;86.77
71291;DHT22;59073;51.994;4.448;2023-05-07T04:39:43;15.12;86.88
71291;DHT22;59073;51.994;4.448;2023-05-07T04:42:08;15.09;87.19
71291;DHT22;59073;51.994;4.448;2023-05-07T04:44:34;15.09;87.08
71291;DHT22;59073;51.994;4.448;2023-05-07T04:47:00;15.19;86.90
71291;DHT22;59073;51.994;4.448;2023-05-07T04:49:26;15.31;86.31
71291;DHT22;59073;51.994;4.448;2023-05-07T04:51:51;15.51;85.29
71291;DHT22;59073;51.994;4.448;2023-05-07T04:54:17;15.54;85.08
71291;DHT22;59073;51.994;4.448;2023-05-07T04:56:42;15.84;84.50
71291;DHT22;59073;51.994;4.448;2023-05-07T04:59:08;15.92;84.21
71291;DHT22;59073;51.994;4.448;2023-05-07T05:01:33;15.97;83.48
71291;DHT22;59073;51.994;4.448;2023-05-07T05:03:58;15.88;83.39
71291;DHT22;59073;51.994;4.448;2023-05-07T05:06:25;15.78;83.97
71291;DHT22;59073;51.994;4.448;2023-05-07T05:08:51;15.75;84.65
71291;DHT22;59073;51.994;4.448;2023-05-07T05:11:16;15.74;84.83
71291;DHT22;59073;51.994;4.448;2023-05-07T05:13:41;15.61;85.10
71291;DHT22;59073;51.994;4.448;2023-05-07T05:16:07;15.60;85.49
71291;DHT22;59073;51.994;4.448;2023-05-07T05:18:32;15.57;85.40
71291;DHT22;59073;51.994;4.448;2023-05-07T05:20:58;15.55;85.54
71291;DHT22;59073;51.994;4.448;2023-05-07T05:23:23;15.62;85.31
71291;DHT22;59073;51.994;4.448;2023-05-07T05:25:48;15.64;84.80
71291;DHT22;59073;51.994;4.448;2023-05-07T05:28:14;15.74;84.77
71291;DHT22;59073;51.994;4.448;2023-05-07T05:30:39;15.78;84.99
71291;DHT22;59073;51.994;4.448;2023-05-07T05:33:05;15.68;85.06
71291;DHT22;59073;51.994;4.448;2023-05-07T05:35:30;15.57;85.63
71291;DHT22;59073;51.994;4.448;2023-05-07T05:37:57;15.51;86.04
71291;DHT22;59073;51.994;4.448;2023-05-07T05:40:22;15.60;86.14
71291;DHT22;59073;51.994;4.448;2023-05-07T05:42:48;15.77;85.71
71291;DHT22;59073;51.994;4.448;2023-05-07T05:45:13;16.00;85.13
71291;DHT22;59073;51.994;4.448;2023-05-07T05:47:38;16.01;84.73
71291;DHT22;59073;51.994;4.448;2023-05-07T05:50:06;15.82;84.65
71291;DHT22;59073;51.994;4.448;2023-05-07T05:52:31;15.70;86.37
71291;DHT22;59073;51.994;4.448;2023-05-07T05:54:57;15.51;86.77
71291;DHT22;59073;51.994;4.448;2023-05-07T05:57:22;15.44;86.98
71291;DHT22;59073;51.994;4.448;2023-05-07T05:59:48;15.47;87.45
71291;DHT22;59073;51.994;4.448;2023-05-07T06:02:13;15.58;87.43
71291;DHT22;59073;51.994;4.448;2023-05-07T06:04:39;15.62;86.93
71291;DHT22;59073;51.994;4.448;2023-05-07T06:07:05;15.70;86.54
71291;DHT22;59073;51.994;4.448;2023-05-07T06:09:30;15.92;85.62
71291;DHT22;59073;51.994;4.448;2023-05-07T06:11:56;16.08;84.91
71291;DHT22;59073;51.994;4.448;2023-05-07T06:14:21;15.98;85.82
71291;DHT22;59073;51.994;4.448;2023-05-07T06:16:46;16.11;84.80
71291;DHT22;59073;51.994;4.448;2023-05-07T06:19:12;16.23;83.93
71291;DHT22;59073;51.994;4.448;2023-05-07T06:21:39;16.28;84.75
71291;DHT22;59073;51.994;4.448;2023-05-07T06:24:04;16.15;84.57
71291;DHT22;59073;51.994;4.448;2023-05-07T06:26:30;16.04;85.08
71291;DHT22;59073;51.994;4.448;2023-05-07T06:28:55;16.02;85.71
71291;DHT22;59073;51.994;4.448;2023-05-07T06:31:21;16.15;85.43
71291;DHT22;59073;51.994;4.448;2023-05-07T06:33:46;16.39;83.86
71291;DHT22;59073;51.994;4.448;2023-05-07T06:36:12;16.59;83.29
71291;DHT22;59073;51.994;4.448;2023-05-07T06:38:37;16.84;82.64
71291;DHT22;59073;51.994;4.448;2023-05-07T06:41:03;16.64;82.85
71291;DHT22;59073;51.994;4.448;2023-05-07T06:43:28;16.63;83.29
71291;DHT22;59073;51.994;4.448;2023-05-07T06:45:54;16.66;83.42
71291;DHT22;59073;51.994;4.448;2023-05-07T06:48:19;16.57;84.51
71291;DHT22;59073;51.994;4.448;2023-05-07T06:50:45;16.42;83.61
71291;DHT22;59073;51.994;4.448;2023-05-07T06:53:10;16.48;83.60
71291;DHT22;59073;51.994;4.448;2023-05-07T06:55:36;16.52;83.39
71291;DHT22;59073;51.994;4.448;2023-05-07T06:58:04;16.43;83.65
71291;DHT22;59073;51.994;4.448;2023-05-07T07:00:31;16.36;84.04
71291;DHT22;59073;51.994;4.448;2023-05-07T07:02:56;16.52;84.25
71291;DHT22;59073;51.994;4.448;2023-05-07T07:05:22;16.60;83.72
71291;DHT22;59073;51.994;4.448;2023-05-07T07:07:47;16.73;83.63
71291;DHT22;59073;51.994;4.448;2023-05-07T07:10:22;16.97;83.21
71291;DHT22;59073;51.994;4.448;2023-05-07T07:12:48;17.56;80.45
71291;DHT22;59073;51.994;4.448;2023-05-07T07:15:14;17.89;81.15
71291;DHT22;59073;51.994;4.448;2023-05-07T07:17:40;17.89;79.82
71291;DHT22;59073;51.994;4.448;2023-05-07T07:20:06;17.65;79.95
71291;DHT22;59073;51.994;4.448;2023-05-07T07:22:32;17.43;81.16
71291;DHT22;59073;51.994;4.448;2023-05-07T07:24:57;17.34;80.64
71291;DHT22;59073;51.994;4.448;2023-05-07T07:27:23;17.12;81.88
71291;DHT22;59073;51.994;4.448;2023-05-07T07:29:49;17.17;82.79
71291;DHT22;59073;51.994;4.448;2023-05-07T07:32:15;17.18;82.18
71291;DHT22;59073;51.994;4.448;2023-05-07T07:34:40;17.41;83.08
71291;DHT22;59073;51.994;4.448;2023-05-07T07:37:05;17.55;81.73
71291;DHT22;59073;51.994;4.448;2023-05-07T07:39:32;17.80;80.44
71291;DHT22;59073;51.994;4.448;2023-05-07T07:41:57;17.71;81.06
71291;DHT22;59073;51.994;4.448;2023-05-07T07:44:23;17.56;81.64
71291;DHT22;59073;51.994;4.448;2023-05-07T07:46:48;17.69;80.92
71291;DHT22;59073;51.994;4.448;2023-05-07T07:49:14;17.79;80.06
71291;DHT22;59073;51.994;4.448;2023-05-07T07:51:40;18.24;79.22
71291;DHT22;59073;51.994;4.448;2023-05-07T07:54:06;18.27;79.09
71291;DHT22;59073;51.994;4.448;2023-05-07T07:56:33;18.61;77.72
71291;DHT22;59073;51.994;4.448;2023-05-07T07:58:58;18.84;77.84
71291;DHT22;59073;51.994;4.448;2023-05-07T08:01:24;18.79;77.81
71291;DHT22;59073;51.994;4.448;2023-05-07T08:03:50;18.62;78.86
71291;DHT22;59073;51.994;4.448;2023-05-07T08:06:15;18.61;76.90
71291;DHT22;59073;51.994;4.448;2023-05-07T08:08:40;18.82;76.10
71291;DHT22;59073;51.994;4.448;2023-05-07T08:11:06;18.94;75.40
71291;DHT22;59073;51.994;4.448;2023-05-07T08:13:31;18.84;74.72
71291;DHT22;59073;51.994;4.448;2023-05-07T08:15:57;18.82;75.46
71291;DHT22;59073;51.994;4.448;2023-05-07T08:18:22;18.94;75.65
71291;DHT22;59073;51.994;4.448;2023-05-07T08:20:50;18.98;76.49
71291;DHT22;59073;51.994;4.448;2023-05-07T08:23:15;18.64;76.81
71291;DHT22;59073;51.994;4.448;2023-05-07T08:25:41;18.57;78.03
71291;DHT22;59073;51.994;4.448;2023-05-07T08:28:08;18.58;79.37
71291;DHT22;59073;51.994;4.448;2023-05-07T08:30:33;18.84;79.72
71291;DHT22;59073;51.994;4.448;2023-05-07T08:33:00;19.16;77.36
71291;DHT22;59073;51.994;4.448;2023-05-07T08:35:25;19.16;76.62
71291;DHT22;59073;51.994;4.448;2023-05-07T08:37:52;19.16;76.73
71291;DHT22;59073;51.994;4.448;2023-05-07T08:40:18;19.08;75.89
71291;DHT22;59073;51.994;4.448;2023-05-07T08:42:44;19.33;76.41
71291;DHT22;59073;51.994;4.448;2023-05-07T08:45:10;19.66;74.67
71291;DHT22;59073;51.994;4.448;2023-05-07T08:47:44;19.46;76.01
71291;DHT22;59073;51.994;4.448;2023-05-07T08:50:12;19.60;75.67
71291;DHT22;59073;51.994;4.448;2023-05-07T08:52:39;19.52;76.23
71291;DHT22;59073;51.994;4.448;2023-05-07T08:55:06;19.74;75.28
71291;DHT22;59073;51.994;4.448;2023-05-07T08:57:32;19.63;74.94
71291;DHT22;59073;51.994;4.448;2023-05-07T08:59:57;19.52;76.00
71291;DHT22;59073;51.994;4.448;2023-05-07T09:02:23;19.94;73.12
71291;DHT22;59073;51.994;4.448;2023-05-07T09:04:51;20.52;72.04
71291;DHT22;59073;51.994;4.448;2023-05-07T09:07:16;21.13;71.95
71291;DHT22;59073;51.994;4.448;2023-05-07T09:09:44;20.99;72.79
71291;DHT22;59073;51.994;4.448;2023-05-07T09:12:09;21.26;72.05
71291;DHT22;59073;51.994;4.448;2023-05-07T09:14:35;21.27;69.09
71291;DHT22;59073;51.994;4.448;2023-05-07T09:17:01;20.97;70.91
71291;DHT22;59073;51.994;4.448;2023-05-07T09:19:27;20.66;73.22
71291;DHT22;59073;51.994;4.448;2023-05-07T09:22:03;20.21;74.45
71291;DHT22;59073;51.994;4.448;2023-05-07T09:24:29;20.33;72.47
71291;DHT22;59073;51.994;4.448;2023-05-07T09:26:59;20.26;73.41
71291;DHT22;59073;51.994;4.448;2023-05-07T09:29:27;20.33;71.77
71291;DHT22;59073;51.994;4.448;2023-05-07T09:32:01;20.39;71.26
71291;DHT22;59073;51.994;4.448;2023-05-07T09:34:27;20.49;72.03
71291;DHT22;59073;51.994;4.448;2023-05-07T09:36:53;20.26;72.06
71291;DHT22;59073;51.994;4.448;2023-05-07T09:39:19;20.35;71.39
71291;DHT22;59073;51.994;4.448;2023-05-07T09:41:46;20.41;71.98
71291;DHT22;59073;51.994;4.448;2023-05-07T09:44:12;20.56;71.43
71291;DHT22;59073;51.994;4.448;2023-05-07T09:46:39;21.31;69.57
71291;DHT22;59073;51.994;4.448;2023-05-07T09:49:09;21.99;68.08
71291;DHT22;59073;51.994;4.448;2023-05-07T09:51:48;22.17;67.02
71291;DHT22;59073;51.994;4.448;2023-05-07T09:54:16;21.88;67.52
71291;DHT22;59073;51.994;4.448;2023-05-07T09:56:43;20.97;69.94
71291;DHT22;59073;51.994;4.448;2023-05-07T09:59:13;21.35;68.55
71291;DHT22;59073;51.994;4.448;2023-05-07T10:01:41;21.57;67.54
71291;DHT22;59073;51.994;4.448;2023-05-07T10:04:07;21.77;66.87
71291;DHT22;59073;51.994;4.448;2023-05-07T10:06:36;21.78;66.34
71291;DHT22;59073;51.994;4.448;2023-05-07T10:09:04;21.82;65.20
71291;DHT22;59073;51.994;4.448;2023-05-07T10:11:33;22.26;66.07
71291;DHT22;59073;51.994;4.448;2023-05-07T10:13:59;22.59;64.46
71291;DHT22;59073;51.994;4.448;2023-05-07T10:16:29;23.18;60.74
71291;DHT22;59073;51.994;4.448;2023-05-07T10:18:57;23.26;61.63
71291;DHT22;59073;51.994;4.448;2023-05-07T10:21:23;22.98;62.97
71291;DHT22;59073;51.994;4.448;2023-05-07T10:24:01;23.59;62.07
71291;DHT22;59073;51.994;4.448;2023-05-07T10:26:30;23.00;61.70
71291;DHT22;59073;51.994;4.448;2023-05-07T10:34:40;22.10;63.50
71291;DHT22;59073;51.994;4.448;2023-05-07T10:37:08;22.51;62.96
71291;DHT22;59073;51.994;4.448;2023-05-07T10:39:34;23.15;63.41
71291;DHT22;59073;51.994;4.448;2023-05-07T10:42:14;23.58;61.37
71291;DHT22;59073;51.994;4.448;2023-05-07T10:44:40;23.28;58.70
71291;DHT22;59073;51.994;4.448;2023-05-07T10:47:11;22.49;63.00
71291;DHT22;59073;51.994;4.448;2023-05-07T10:52:31;21.98;64.68
71291;DHT22;59073;51.994;4.448;2023-05-07T10:57:40;22.16;63.21
71291;DHT22;59073;51.994;4.448;2023-05-07T11:05:28;22.39;58.50
71291;DHT22;59073;51.994;4.448;2023-05-07T11:08:04;22.59;58.38
71291;DHT22;59073;51.994;4.448;2023-05-07T11:10:49;22.26;61.06
71291;DHT22;59073;51.994;4.448;2023-05-07T11:13:15;22.35;60.38
71291;DHT22;59073;51.994;4.448;2023-05-07T11:15:44;22.37;60.37
71291;DHT22;59073;51.994;4.448;2023-05-07T11:18:11;22.40;59.55
71291;DHT22;59073;51.994;4.448;2023-05-07T11:20:56;22.37;61.41
71291;DHT22;59073;51.994;4.448;2023-05-07T11:26:00;22.68;60.64
71291;DHT22;59073;51.994;4.448;2023-05-07T11:28:28;22.97;59.33
71291;DHT22;59073;51.994;4.448;2023-05-07T11:30:56;23.16;58.43
71291;DHT22;59073;51.994;4.448;2023-05-07T11:33:22;23.33;58.91
71291;DHT22;59073;51.994;4.448;2023-05-07T11:35:48;23.16;59.22
71291;DHT22;59073;51.994;4.448;2023-05-07T11:38:13;23.05;60.43
71291;DHT22;59073;51.994;4.448;2023-05-07T11:40:49;23.26;61.29
71291;DHT22;59073;51.994;4.448;2023-05-07T11:43:15;22.97;60.28
71291;DHT22;59073;51.994;4.448;2023-05-07T11:45:41;23.37;61.61
71291;DHT22;59073;51.994;4.448;2023-05-07T11:48:07;23.66;60.73
71291;DHT22;59073;51.994;4.448;2023-05-07T11:50:32;23.92;59.42
71291;DHT22;59073;51.994;4.448;2023-05-07T11:52:58;23.93;59.15
71291;DHT22;59073;51.994;4.448;2023-05-07T11:55:24;23.96;59.73
71291;DHT22;59073;51.994;4.448;2023-05-07T11:57:51;23.77;58.80
71291;DHT22;59073;51.994;4.448;2023-05-07T12:00:17;23.56;58.88
71291;DHT22;59073;51.994;4.448;2023-05-07T12:02:44;23.25;59.96
71291;DHT22;59073;51.994;4.448;2023-05-07T12:05:10;22.86;60.99
71291;DHT22;59073;51.994;4.448;2023-05-07T12:07:36;22.47;61.01
71291;DHT22;59073;51.994;4.448;2023-05-07T12:10:05;22.32;62.63
71291;DHT22;59073;51.994;4.448;2023-05-07T12:12:31;22.42;62.86
71291;DHT22;59073;51.994;4.448;2023-05-07T12:15:02;22.67;64.30
71291;DHT22;59073;51.994;4.448;2023-05-07T12:17:28;22.75;65.47
71291;DHT22;59073;51.994;4.448;2023-05-07T12:19:54;22.68;65.00
71291;DHT22;59073;51.994;4.448;2023-05-07T12:22:19;22.24;63.37
71291;DHT22;59073;51.994;4.448;2023-05-07T12:24:47;20.93;66.85
71291;DHT22;59073;51.994;4.448;2023-05-07T12:27:13;20.36;69.37
71291;DHT22;59073;51.994;4.448;2023-05-07T12:29:39;19.97;70.87
71291;DHT22;59073;51.994;4.448;2023-05-07T12:32:06;19.60;71.97
71291;DHT22;59073;51.994;4.448;2023-05-07T12:34:32;19.23;72.47
71291;DHT22;59073;51.994;4.448;2023-05-07T12:37:02;19.05;73.16
71291;DHT22;59073;51.994;4.448;2023-05-07T12:39:28;19.08;74.13
71291;DHT22;59073;51.994;4.448;2023-05-07T12:41:55;19.32;74.53
71291;DHT22;59073;51.994;4.448;2023-05-07T12:44:30;19.40;73.18
71291;DHT22;59073;51.994;4.448;2023-05-07T12:46:56;19.29;74.84
71291;DHT22;59073;51.994;4.448;2023-05-07T12:49:22;18.85;76.22
71291;DHT22;59073;51.994;4.448;2023-05-07T12:51:48;18.65;77.72
71291;DHT22;59073;51.994;4.448;2023-05-07T12:54:28;18.72;77.84
71291;DHT22;59073;51.994;4.448;2023-05-07T12:57:04;18.75;77.06
71291;DHT22;59073;51.994;4.448;2023-05-07T12:59:38;18.84;78.05
71291;DHT22;59073;51.994;4.448;2023-05-07T13:02:05;18.84;78.95
71291;DHT22;59073;51.994;4.448;2023-05-07T13:04:30;18.67;77.89
71291;DHT22;59073;51.994;4.448;2023-05-07T13:06:56;18.54;78.56
71291;DHT22;59073;51.994;4.448;2023-05-07T13:09:21;18.51;78.51
71291;DHT22;59073;51.994;4.448;2023-05-07T13:11:47;18.38;78.01
71291;DHT22;59073;51.994;4.448;2023-05-07T13:14:12;18.45;78.74
71291;DHT22;59073;51.994;4.448;2023-05-07T13:16:38;18.71;78.51
71291;DHT22;59073;51.994;4.448;2023-05-07T13:19:03;18.72;78.74
71291;DHT22;59073;51.994;4.448;2023-05-07T13:21:29;18.74;77.75
71291;DHT22;59073;51.994;4.448;2023-05-07T13:23:57;18.65;77.16
71291;DHT22;59073;51.994;4.448;2023-05-07T13:26:23;18.58;76.82
71291;DHT22;59073;51.994;4.448;2023-05-07T13:28:48;18.57;77.26
71291;DHT22;59073;51.994;4.448;2023-05-07T13:31:14;18.69;77.98
71291;DHT22;59073;51.994;4.448;2023-05-07T13:33:39;18.82;77.08
71291;DHT22;59073;51.994;4.448;2023-05-07T13:36:05;18.89;76.81
71291;DHT22;59073;51.994;4.448;2023-05-07T13:38:31;19.02;76.89
71291;DHT22;59073;51.994;4.448;2023-05-07T13:40:56;19.23;76.22
71291;DHT22;59073;51.994;4.448;2023-05-07T13:43:22;19.45;76.17
71291;DHT22;59073;51.994;4.448;2023-05-07T13:45:47;19.46;75.08
71291;DHT22;59073;51.994;4.448;2023-05-07T13:48:12;19.53;74.63
71291;DHT22;59073;51.994;4.448;2023-05-07T13:50:38;19.73;74.54
71291;DHT22;59073;51.994;4.448;2023-05-07T13:53:03;20.01;73.79
71291;DHT22;59073;51.994;4.448;2023-05-07T13:55:29;20.25;73.73
71291;DHT22;59073;51.994;4.448;2023-05-07T13:58:00;20.28;72.05
71291;DHT22;59073;51.994;4.448;2023-05-07T14:00:26;20.29;72.31
71291;DHT22;59073;51.994;4.448;2023-05-07T14:02:52;20.39;71.92
71291;DHT22;59073;51.994;4.448;2023-05-07T14:05:18;20.07;70.49
71291;DHT22;59073;51.994;4.448;2023-05-07T14:07:43;20.12;72.08
71291;DHT22;59073;51.994;4.448;2023-05-07T14:10:09;19.88;71.46
71291;DHT22;59073;51.994;4.448;2023-05-07T14:12:36;20.08;73.07
71291;DHT22;59073;51.994;4.448;2023-05-07T14:15:02;20.42;72.08
71291;DHT22;59073;51.994;4.448;2023-05-07T14:17:28;20.45;70.18
71291;DHT22;59073;51.994;4.448;2023-05-07T14:19:54;20.33;69.01
71291;DHT22;59073;51.994;4.448;2023-05-07T14:22:21;20.38;71.19
71291;DHT22;59073;51.994;4.448;2023-05-07T14:24:47;20.22;70.03
71291;DHT22;59073;51.994;4.448;2023-05-07T14:27:12;20.20;70.77
71291;DHT22;59073;51.994;4.448;2023-05-07T14:29:38;20.21;70.13
71291;DHT22;59073;51.994;4.448;2023-05-07T14:32:03;20.08;70.35
71291;DHT22;59073;51.994;4.448;2023-05-07T14:34:29;19.92;70.80
71291;DHT22;59073;51.994;4.448;2023-05-07T14:36:55;19.63;70.21
71291;DHT22;59073;51.994;4.448;2023-05-07T14:39:21;19.60;70.69
71291;DHT22;59073;51.994;4.448;2023-05-07T14:41:47;19.71;70.67
71291;DHT22;59073;51.994;4.448;2023-05-07T14:44:12;19.71;73.15
71291;DHT22;59073;51.994;4.448;2023-05-07T14:46:37;19.74;73.55
71291;DHT22;59073;51.994;4.448;2023-05-07T14:49:03;19.66;73.13
71291;DHT22;59073;51.994;4.448;2023-05-07T14:51:28;19.60;73.87
71291;DHT22;59073;51.994;4.448;2023-05-07T14:53:54;19.50;73.79
71291;DHT22;59073;51.994;4.448;2023-05-07T14:56:20;19.54;73.59
71291;DHT22;59073;51.994;4.448;2023-05-07T14:58:47;19.32;75.47
71291;DHT22;59073;51.994;4.448;2023-05-07T15:01:13;19.26;77.24
71291;DHT22;59073;51.994;4.448;2023-05-07T15:03:39;19.22;77.83
71291;DHT22;59073;51.994;4.448;2023-05-07T15:06:05;19.01;77.60
71291;DHT22;59073;51.994;4.448;2023-05-07T15:08:30;18.87;77.20
71291;DHT22;59073;51.994;4.448;2023-05-07T15:10:56;18.87;76.65
71291;DHT22;59073;51.994;4.448;2023-05-07T15:13:22;18.79;78.20
71291;DHT22;59073;51.994;4.448;2023-05-07T15:15:47;18.67;79.71
71291;DHT22;59073;51.994;4.448;2023-05-07T15:18:15;18.60;79.43
71291;DHT22;59073;51.994;4.448;2023-05-07T15:20:41;18.69;80.32
71291;DHT22;59073;51.994;4.448;2023-05-07T15:23:08;18.74;80.66
71291;DHT22;59073;51.994;4.448;2023-05-07T15:25:40;18.58;80.09
71291;DHT22;59073;51.994;4.448;2023-05-07T15:28:06;18.74;80.29
71291;DHT22;59073;51.994;4.448;2023-05-07T15:30:32;18.75;79.95
71291;DHT22;59073;51.994;4.448;2023-05-07T15:32:58;18.65;80.65
71291;DHT22;59073;51.994;4.448;2023-05-07T15:35:23;18.74;80.85
71291;DHT22;59073;51.994;4.448;2023-05-07T15:37:50;18.91;81.19
71291;DHT22;59073;51.994;4.448;2023-05-07T15:40:16;19.02;80.81
71291;DHT22;59073;51.994;4.448;2023-05-07T15:42:44;19.12;80.48
71291;DHT22;59073;51.994;4.448;2023-05-07T15:45:10;19.13;79.94